createdAt,value
2022-12-10T00:04:02.188Z,29.23
2022-12-10T00:09:06.022Z,31.58
2022-12-10T00:14:08.335Z,31.05
2022-12-10T00:19:10.168Z,33.35
2022-12-10T00:24:13.035Z,29.00
2022-12-10T00:29:14.745Z,31.98
2022-12-10T00:34:16.432Z,33.05
2022-12-10T00:39:20.718Z,26.45
2022-12-10T00:44:22.483Z,32.45
2022-12-10T00:49:25.391Z,31.65
2022-12-10T00:54:27.080Z,30.60
2022-12-10T00:59:28.734Z,35.90
2022-12-10T01:04:30.489Z,38.10
2022-12-10T01:09:32.356Z,36.63
2022-12-10T01:14:35.049Z,35.67
2022-12-10T01:19:36.852Z,32.97
2022-12-10T01:24:38.577Z,32.97
2022-12-10T01:29:40.324Z,34.85
2022-12-10T01:34:41.979Z,34.22
2022-12-10T01:39:43.638Z,28.67
2022-12-10T01:44:45.256Z,32.10
2022-12-10T01:49:46.943Z,29.00
2022-12-10T01:54:48.716Z,29.98
2022-12-10T01:59:54.455Z,30.45
2022-12-10T02:05:17.756Z,28.15
2022-12-10T02:10:38.073Z,25.40
2022-12-10T02:15:52.227Z,27.35
2022-12-10T02:20:58.284Z,30.23
2022-12-10T02:26:18.600Z,27.20
2022-12-10T02:31:26.121Z,26.08
2022-12-10T02:36:33.414Z,25.38
2022-12-10T02:41:41.448Z,25.95
2022-12-10T02:46:45.438Z,24.50
2022-12-10T02:51:47.100Z,23.80
2022-12-10T02:56:59.183Z,23.60
2022-12-10T03:02:25.301Z,27.25
2022-12-10T03:07:36.554Z,25.83
2022-12-10T03:12:47.867Z,26.98
2022-12-10T03:17:50.179Z,28.77
2022-12-10T03:22:52.620Z,23.27
2022-12-10T03:27:56.787Z,25.30
2022-12-10T03:32:58.722Z,28.95
2022-12-10T03:38:00.604Z,23.13
2022-12-10T03:43:02.433Z,25.13
2022-12-10T03:48:04.361Z,29.23
2022-12-10T03:53:06.137Z,29.23
2022-12-10T03:58:07.833Z,30.55
2022-12-10T04:03:09.536Z,29.83
2022-12-10T04:08:11.212Z,33.35
2022-12-10T04:13:31.615Z,34.53
2022-12-10T04:18:33.308Z,34.03
2022-12-10T04:23:53.621Z,35.38
2022-12-10T04:28:55.277Z,38.80
2022-12-10T04:33:57.025Z,33.80
2022-12-10T04:38:58.723Z,33.78
2022-12-10T04:44:00.458Z,35.75
2022-12-10T04:49:02.623Z,35.03
2022-12-10T04:54:05.006Z,34.50
2022-12-10T04:59:07.697Z,33.30
2022-12-10T05:04:12.894Z,33.40
2022-12-10T05:09:15.014Z,33.33
2022-12-10T05:14:16.857Z,35.53
2022-12-10T05:19:20.471Z,34.60
2022-12-10T05:24:22.179Z,35.30
2022-12-10T05:29:23.869Z,37.90
2022-12-10T05:34:25.585Z,37.13
2022-12-10T05:39:27.266Z,35.95
2022-12-10T05:44:30.382Z,34.33
2022-12-10T05:49:32.065Z,36.65
2022-12-10T05:54:33.722Z,37.45
2022-12-10T05:59:35.369Z,40.83
2022-12-10T06:04:37.170Z,37.03
2022-12-10T06:09:38.925Z,37.00
2022-12-10T06:14:40.628Z,33.20
2022-12-10T06:19:42.264Z,38.33
2022-12-10T06:24:44.206Z,34.05
2022-12-10T06:29:45.929Z,35.00
2022-12-10T06:34:47.631Z,36.83
2022-12-10T06:39:52.447Z,31.85
2022-12-10T06:44:54.150Z,32.97
2022-12-10T06:49:55.873Z,37.78
2022-12-10T06:54:57.591Z,36.13
2022-12-10T06:59:59.261Z,34.40
2022-12-10T07:05:01.071Z,36.00
2022-12-10T07:10:03.493Z,38.38
2022-12-10T07:15:05.901Z,31.80
2022-12-10T07:20:08.409Z,34.25
2022-12-10T07:25:10.341Z,34.50
2022-12-10T07:30:12.585Z,34.97
2022-12-10T07:35:14.580Z,37.22
2022-12-10T07:40:16.357Z,36.38
2022-12-10T07:45:18.097Z,34.67
2022-12-10T07:50:19.766Z,35.03
2022-12-10T07:55:21.426Z,38.17
2022-12-10T08:00:23.118Z,34.10
2022-12-10T08:05:25.279Z,40.13
2022-12-10T08:10:26.957Z,33.10
2022-12-10T08:15:29.221Z,36.40
2022-12-10T08:20:31.214Z,35.42
2022-12-10T08:25:36.060Z,34.75
2022-12-10T08:30:47.238Z,33.50
2022-12-10T08:35:48.883Z,35.38
2022-12-10T08:40:50.548Z,38.35
2022-12-10T08:45:52.453Z,35.35
2022-12-10T08:50:54.182Z,39.58
2022-12-10T08:55:57.076Z,35.90
2022-12-10T09:00:59.933Z,36.85
2022-12-10T09:06:11.393Z,36.15
2022-12-10T09:11:16.467Z,34.35
2022-12-10T09:16:18.728Z,37.53
2022-12-10T09:21:21.534Z,36.25
2022-12-10T09:26:23.264Z,34.47
2022-12-10T09:31:25.503Z,42.95
2022-12-10T09:36:33.129Z,31.33
2022-12-10T09:41:46.967Z,34.83
2022-12-10T09:46:51.390Z,34.88
2022-12-10T09:51:58.920Z,32.97
2022-12-10T09:57:02.165Z,32.65
2022-12-10T10:02:26.620Z,38.13
2022-12-10T10:07:31.401Z,32.13
2022-12-10T10:12:35.065Z,29.35
2022-12-10T10:17:38.260Z,30.88
2022-12-10T10:22:40.963Z,31.67
2022-12-10T10:27:42.717Z,28.92
2022-12-10T10:32:48.694Z,30.20
2022-12-10T10:37:50.584Z,29.20
2022-12-10T10:42:56.319Z,25.67
2022-12-10T10:48:06.110Z,25.50
2022-12-10T10:53:28.626Z,28.67
2022-12-10T10:58:30.486Z,26.33
2022-12-10T11:03:35.081Z,26.33
2022-12-10T11:08:39.669Z,24.15
2022-12-10T11:13:41.984Z,28.80
2022-12-10T11:18:58.630Z,24.25
2022-12-10T11:24:04.980Z,25.90
2022-12-10T11:29:43.656Z,28.50
2022-12-10T11:34:57.447Z,26.67
2022-12-10T11:40:36.969Z,28.40
2022-12-10T11:46:06.721Z,26.42
2022-12-10T11:51:50.050Z,24.90
2022-12-10T11:57:03.592Z,26.10
2022-12-10T12:02:38.147Z,27.80
2022-12-10T12:07:42.816Z,26.38
2022-12-10T12:13:08.124Z,23.23
2022-12-10T12:18:26.566Z,24.52
2022-12-10T12:23:44.791Z,23.27
2022-12-10T12:29:02.003Z,28.88
2022-12-10T12:34:25.097Z,25.23
2022-12-10T12:39:52.285Z,26.45
2022-12-10T12:45:18.559Z,24.10
2022-12-10T12:50:46.175Z,26.38
2022-12-10T12:55:51.544Z,25.17
2022-12-10T13:00:59.782Z,24.60
2022-12-10T13:06:23.903Z,28.08
2022-12-10T13:11:35.515Z,27.52
2022-12-10T13:16:44.978Z,26.50
2022-12-10T13:21:58.607Z,27.77
2022-12-10T13:27:12.558Z,28.55
2022-12-10T13:32:32.995Z,30.48
2022-12-10T13:37:53.821Z,29.45
2022-12-10T13:43:43.473Z,30.92
2022-12-10T13:48:45.585Z,28.42
2022-12-10T13:54:18.720Z,30.50
2022-12-10T13:59:23.798Z,30.83
2022-12-10T14:04:52.449Z,28.65
2022-12-10T14:09:56.854Z,32.97
2022-12-10T14:15:09.734Z,35.65
2022-12-10T14:20:24.936Z,32.92
2022-12-10T14:25:26.685Z,34.33
2022-12-10T14:30:29.446Z,34.05
2022-12-10T14:35:31.605Z,29.63
2022-12-10T14:40:38.589Z,27.60
2022-12-10T14:45:54.846Z,25.30
2022-12-10T14:51:12.989Z,28.95
2022-12-10T14:56:31.759Z,30.13
2022-12-10T15:01:38.248Z,29.63
2022-12-10T15:06:40.208Z,28.90
2022-12-10T15:11:42.022Z,28.10
2022-12-10T15:16:45.833Z,29.83
2022-12-10T15:21:48.994Z,32.83
2022-12-10T15:26:52.059Z,32.10
2022-12-10T15:32:00.713Z,30.83
2022-12-10T15:37:04.520Z,36.42
2022-12-10T15:42:08.646Z,35.05
2022-12-10T15:47:18.603Z,32.30
2022-12-10T15:52:23.886Z,32.40
2022-12-10T15:57:28.599Z,32.60
2022-12-10T16:02:45.345Z,31.50
2022-12-10T16:07:49.206Z,27.40
2022-12-10T16:13:06.880Z,30.02
2022-12-10T16:18:10.319Z,28.70
2022-12-10T16:23:12.365Z,31.42
2022-12-10T16:28:22.589Z,28.67
2022-12-10T16:33:26.449Z,35.13
2022-12-10T16:38:28.263Z,32.58
2022-12-10T16:43:31.441Z,31.52
2022-12-10T16:48:33.125Z,32.22
2022-12-10T16:53:36.936Z,30.20
2022-12-10T16:58:38.752Z,34.50
2022-12-10T17:03:40.833Z,34.00
2022-12-10T17:08:42.767Z,29.60
2022-12-10T17:13:45.816Z,28.08
2022-12-10T17:18:47.585Z,30.33
2022-12-10T17:23:49.651Z,30.95
2022-12-10T17:28:51.747Z,26.75
2022-12-10T17:33:53.523Z,25.83
2022-12-10T17:38:55.195Z,28.42
2022-12-10T17:43:56.993Z,27.38
2022-12-10T17:49:04.802Z,29.63
2022-12-10T17:54:06.480Z,27.80
2022-12-10T17:59:08.178Z,29.85
2022-12-10T18:04:09.864Z,32.63
2022-12-10T18:09:12.997Z,33.17
2022-12-10T18:14:15.335Z,32.08
2022-12-10T18:19:18.151Z,32.35
2022-12-10T18:24:20.533Z,41.00
2022-12-10T18:29:22.217Z,34.17
2022-12-10T18:34:24.519Z,30.15
2022-12-10T18:39:29.656Z,26.48
2022-12-10T18:44:31.622Z,33.83
2022-12-10T18:49:36.654Z,32.00
2022-12-10T18:54:38.684Z,32.58
2022-12-10T18:59:44.310Z,33.38
2022-12-10T19:04:46.072Z,32.72
2022-12-10T19:09:50.717Z,31.13
2022-12-10T19:14:52.423Z,31.35
2022-12-10T19:19:54.156Z,32.20
2022-12-10T19:24:55.919Z,38.50
2022-12-10T19:29:57.694Z,32.53
2022-12-10T19:34:59.611Z,34.47
2022-12-10T19:40:01.473Z,35.05
2022-12-10T19:45:03.323Z,32.08
2022-12-10T19:50:05.438Z,39.55
2022-12-10T19:55:07.777Z,36.25
2022-12-10T20:00:17.802Z,34.83
2022-12-10T20:05:20.393Z,34.30
2022-12-10T20:10:28.951Z,33.60
2022-12-10T20:15:30.827Z,34.45
2022-12-10T20:20:32.678Z,33.50
2022-12-10T20:25:34.344Z,37.63
2022-12-10T20:30:36.706Z,36.28
2022-12-10T20:35:42.539Z,35.22
2022-12-10T20:40:44.493Z,35.15
2022-12-10T20:45:46.223Z,34.80
2022-12-10T20:50:47.951Z,32.00
2022-12-10T20:55:49.625Z,34.15
2022-12-10T21:00:51.307Z,30.73
2022-12-10T21:05:53.276Z,28.75
2022-12-10T21:10:56.405Z,29.73
2022-12-10T21:15:59.982Z,30.98
2022-12-10T21:21:02.087Z,30.70
2022-12-10T21:26:03.815Z,30.52
2022-12-10T21:31:06.075Z,30.55
2022-12-10T21:36:09.877Z,36.33
2022-12-10T21:41:37.370Z,37.90
2022-12-10T21:46:39.848Z,30.02
2022-12-10T21:51:42.788Z,26.75
2022-12-10T21:56:44.571Z,23.33
2022-12-10T22:01:46.295Z,25.58
2022-12-10T22:06:47.977Z,24.92
2022-12-10T22:11:49.640Z,19.77
2022-12-10T22:16:51.403Z,25.98
2022-12-10T22:21:53.101Z,19.23
2022-12-10T22:26:54.775Z,24.35
2022-12-10T22:31:56.433Z,20.88
2022-12-10T22:36:58.181Z,22.73
2022-12-10T22:41:59.879Z,23.42
2022-12-10T22:47:01.821Z,23.25
2022-12-10T22:52:03.800Z,23.00
2022-12-10T22:57:05.619Z,22.13
2022-12-10T23:02:07.425Z,22.95
2022-12-10T23:07:09.594Z,21.83
2022-12-10T23:12:30.189Z,20.35
2022-12-10T23:17:31.972Z,19.75
2022-12-10T23:22:34.238Z,22.88
2022-12-10T23:27:35.949Z,24.50
2022-12-10T23:32:38.224Z,17.70
2022-12-10T23:37:40.076Z,16.50
2022-12-10T23:42:41.835Z,19.15
2022-12-10T23:47:43.738Z,16.60
2022-12-10T23:52:45.503Z,15.85
2022-12-10T23:57:47.167Z,12.48
